Time;durP1;ratioP1;P1;durP2;ratioP2;P2;SDS_P1;SDS_P2;PMS_P1;PMS_P2;Temp;Humidity;BMP_temperature;BMP_pressure;BME280_temperature;BME280_humidity;BME280_pressure;Samples;Min_cycle;Max_cycle;Signal;HPM_P1;HPM_P2
2022/05/08 00:00:53;;;;;;;3.92;3.10;;;;;;;;;;7391664;19;20010;-77
2022/05/08 00:03:18;;;;;;;5.65;3.70;;;;;;;;;;7392323;19;20756;-77
2022/05/08 00:05:44;;;;;;;5.07;3.58;;;;;;;;;;7393507;19;20026;-77
2022/05/08 00:08:09;;;;;;;6.65;3.25;;;;;;;;;;7390802;19;20468;-77
2022/05/08 00:10:34;;;;;;;3.58;2.83;;;;;;;;;;7391701;19;20018;-77
2022/05/08 00:13:00;;;;;;;3.80;3.05;;;;;;;;;;7392247;19;20089;-77
2022/05/08 00:15:25;;;;;;;5.85;3.28;;;;;;;;;;7393999;19;20006;-77
2022/05/08 00:17:50;;;;;;;4.45;3.20;;;;;;;;;;7391853;19;20488;-77
2022/05/08 00:20:15;;;;;;;4.88;3.42;;;;;;;;;;7392341;19;20339;-77
2022/05/08 00:22:45;;;;;;;3.45;2.50;;;;;;;;;;7389700;19;20010;-77
2022/05/08 00:25:11;;;;;;;4.22;3.35;;;;;;;;;;7392554;19;20014;-77
2022/05/08 00:27:36;;;;;;;4.15;3.28;;;;;;;;;;7390078;19;20015;-77
2022/05/08 00:30:03;;;;;;;3.88;2.63;;;;;;;;;;7394346;19;20030;-77
2022/05/08 00:32:28;;;;;;;4.10;3.60;;;;;;;;;;7391536;19;20094;-78
2022/05/08 00:34:53;;;;;;;4.00;3.40;;;;;;;;;;7392910;19;20007;-77
2022/05/08 00:37:19;;;;;;;5.22;3.78;;;;;;;;;;7391605;19;20015;-78
2022/05/08 00:39:44;;;;;;;3.67;2.72;;;;;;;;;;7391339;19;20007;-77
2022/05/08 00:42:10;;;;;;;4.43;3.50;;;;;;;;;;7391585;19;20801;-77
2022/05/08 00:44:35;;;;;;;3.65;2.92;;;;;;;;;;7389998;19;20006;-77
2022/05/08 00:47:01;;;;;;;3.80;3.05;;;;;;;;;;7391842;19;20007;-77
2022/05/08 00:49:26;;;;;;;6.50;3.60;;;;;;;;;;7389128;19;20029;-77
2022/05/08 00:51:51;;;;;;;2.83;2.55;;;;;;;;;;7394574;19;20523;-77
2022/05/08 00:54:17;;;;;;;4.35;3.28;;;;;;;;;;7391988;19;20014;-77
2022/05/08 00:56:43;;;;;;;2.88;2.40;;;;;;;;;;7391186;19;20460;-77
2022/05/08 00:59:09;;;;;;;3.22;2.38;;;;;;;;;;7387292;19;20015;-77
2022/05/08 01:01:34;;;;;;;4.03;2.90;;;;;;;;;;7388520;19;20014;-77
2022/05/08 01:04:00;;;;;;;3.63;2.70;;;;;;;;;;7389191;19;20014;-77
2022/05/08 01:06:26;;;;;;;3.08;2.72;;;;;;;;;;7392120;19;20030;-77
2022/05/08 01:08:52;;;;;;;3.70;3.08;;;;;;;;;;7390042;19;20407;-77
2022/05/08 01:11:18;;;;;;;4.28;3.35;;;;;;;;;;7391729;19;20340;-77
2022/05/08 01:13:44;;;;;;;3.72;3.10;;;;;;;;;;7389739;19;20089;-77
2022/05/08 01:16:14;;;;;;;4.28;3.13;;;;;;;;;;7388914;19;20027;-77
2022/05/08 01:18:39;;;;;;;4.40;3.53;;;;;;;;;;7389292;19;20018;-77
2022/05/08 01:21:08;;;;;;;3.00;2.63;;;;;;;;;;7390162;19;20015;-77
2022/05/08 01:23:33;;;;;;;3.70;2.67;;;;;;;;;;7391811;19;20006;-77
2022/05/08 01:25:59;;;;;;;3.80;2.60;;;;;;;;;;7393117;19;20306;-77
2022/05/08 01:28:25;;;;;;;3.55;2.47;;;;;;;;;;7389207;19;20041;-77
2022/05/08 01:30:52;;;;;;;3.65;2.50;;;;;;;;;;7390825;19;20010;-77
2022/05/08 01:33:18;;;;;;;4.28;3.53;;;;;;;;;;7388252;19;20022;-77
2022/05/08 01:35:44;;;;;;;3.08;2.35;;;;;;;;;;7391961;19;20007;-77
2022/05/08 01:38:12;;;;;;;3.47;3.10;;;;;;;;;;7389100;19;20011;-77
2022/05/08 01:40:38;;;;;;;4.07;3.10;;;;;;;;;;7388738;19;20021;-77
2022/05/08 01:43:04;;;;;;;3.30;2.40;;;;;;;;;;7392127;19;20016;-77
2022/05/08 01:45:30;;;;;;;4.20;3.10;;;;;;;;;;7389053;19;20086;-77
2022/05/08 01:50:40;;;;;;;3.55;3.08;;;;;;;;;;7388289;19;20084;-77
2022/05/08 01:53:06;;;;;;;4.18;3.15;;;;;;;;;;7390611;19;20014;-77
2022/05/08 01:55:31;;;;;;;3.08;2.78;;;;;;;;;;7388313;19;20022;-77
2022/05/08 01:57:58;;;;;;;4.15;3.33;;;;;;;;;;7387613;19;20007;-77
2022/05/08 02:00:25;;;;;;;3.78;3.17;;;;;;;;;;7388373;19;20402;-78
2022/05/08 02:02:51;;;;;;;4.47;2.92;;;;;;;;;;7387998;19;20019;-77
2022/05/08 02:05:17;;;;;;;4.68;3.45;;;;;;;;;;7390646;19;20010;-77
2022/05/08 02:07:45;;;;;;;3.08;2.35;;;;;;;;;;7386700;19;20006;-77
2022/05/08 02:10:11;;;;;;;23.52;4.32;;;;;;;;;;7389235;19;20046;-80
2022/05/08 02:12:36;;;;;;;4.35;3.10;;;;;;;;;;7389637;19;20013;-77
2022/05/08 02:15:01;;;;;;;5.00;3.53;;;;;;;;;;7390358;19;20082;-77
2022/05/08 02:17:27;;;;;;;4.05;3.47;;;;;;;;;;7387713;19;20009;-77
2022/05/08 02:19:52;;;;;;;3.58;3.28;;;;;;;;;;7397000;19;20022;-77
2022/05/08 02:22:17;;;;;;;3.65;2.72;;;;;;;;;;7392103;19;20023;-77
2022/05/08 02:24:43;;;;;;;3.95;3.22;;;;;;;;;;7393632;19;20014;-78
2022/05/08 02:27:08;;;;;;;4.28;3.30;;;;;;;;;;7393851;19;20014;-78
2022/05/08 02:29:33;;;;;;;4.63;3.40;;;;;;;;;;7391673;19;20009;-77
2022/05/08 02:31:58;;;;;;;3.97;2.80;;;;;;;;;;7391146;19;20018;-77
2022/05/08 02:34:24;;;;;;;4.93;3.60;;;;;;;;;;7388257;19;20015;-77
2022/05/08 02:36:49;;;;;;;2.72;2.38;;;;;;;;;;7388756;19;20470;-77
2022/05/08 02:39:14;;;;;;;3.65;3.17;;;;;;;;;;7386700;19;20031;-77
2022/05/08 02:41:39;;;;;;;4.22;3.47;;;;;;;;;;7388597;19;20018;-77
2022/05/08 02:44:05;;;;;;;3.75;2.78;;;;;;;;;;7393668;19;20348;-78
2022/05/08 02:46:30;;;;;;;3.22;2.88;;;;;;;;;;7387112;19;20013;-77
2022/05/08 02:48:55;;;;;;;4.03;3.17;;;;;;;;;;7388291;19;20309;-77
2022/05/08 02:51:21;;;;;;;4.22;2.90;;;;;;;;;;7385975;19;20007;-77
2022/05/08 02:53:46;;;;;;;2.80;2.53;;;;;;;;;;7388895;19;20062;-78
2022/05/08 02:58:56;;;;;;;4.75;3.80;;;;;;;;;;7387351;19;20200;-77
2022/05/08 03:01:21;;;;;;;5.38;2.92;;;;;;;;;;7385537;19;20098;-77
2022/05/08 03:03:47;;;;;;;4.55;3.50;;;;;;;;;;7386078;19;20018;-77
2022/05/08 03:06:13;;;;;;;3.58;2.85;;;;;;;;;;7387774;19;20007;-78
2022/05/08 03:08:39;;;;;;;3.30;2.72;;;;;;;;;;7387261;19;20011;-77
2022/05/08 03:13:48;;;;;;;3.85;3.30;;;;;;;;;;7386708;19;20501;-77
2022/05/08 03:16:13;;;;;;;3.45;3.15;;;;;;;;;;7386493;19;20062;-77
2022/05/08 03:18:40;;;;;;;4.22;3.20;;;;;;;;;;7387704;19;20014;-77
2022/05/08 03:21:07;;;;;;;3.50;2.90;;;;;;;;;;7392190;19;20019;-77
2022/05/08 03:23:34;;;;;;;3.10;2.72;;;;;;;;;;7398276;19;20006;-77
2022/05/08 03:25:59;;;;;;;3.22;2.35;;;;;;;;;;7397107;19;20010;-78
2022/05/08 03:28:24;;;;;;;4.38;3.22;;;;;;;;;;7398010;19;20021;-77
2022/05/08 03:30:50;;;;;;;3.40;2.55;;;;;;;;;;7393592;19;20217;-77
2022/05/08 03:33:15;;;;;;;2.78;2.50;;;;;;;;;;7393705;19;20705;-78
2022/05/08 03:35:41;;;;;;;3.75;3.33;;;;;;;;;;7397003;19;20026;-78
2022/05/08 03:38:08;;;;;;;3.47;2.80;;;;;;;;;;7396132;19;20014;-77
2022/05/08 03:40:35;;;;;;;4.07;3.55;;;;;;;;;;7393033;19;20010;-77
2022/05/08 03:43:01;;;;;;;4.75;3.40;;;;;;;;;;7391554;19;20014;-77
2022/05/08 03:45:28;;;;;;;4.25;3.35;;;;;;;;;;7389409;19;20021;-77
2022/05/08 03:47:54;;;;;;;4.00;3.30;;;;;;;;;;7392140;19;20038;-77
2022/05/08 03:50:20;;;;;;;6.38;3.22;;;;;;;;;;7394178;19;20007;-77
2022/05/08 03:52:46;;;;;;;5.50;4.20;;;;;;;;;;7390932;19;20030;-77
2022/05/08 03:55:13;;;;;;;4.13;3.53;;;;;;;;;;7392738;19;20007;-77
2022/05/08 03:57:38;;;;;;;6.13;3.42;;;;;;;;;;7393786;19;20014;-78
2022/05/08 04:00:04;;;;;;;5.65;3.67;;;;;;;;;;7401882;19;20010;-78
2022/05/08 04:02:30;;;;;;;4.45;3.63;;;;;;;;;;7392939;19;20026;-77
2022/05/08 04:04:55;;;;;;;7.55;3.53;;;;;;;;;;7396782;19;20011;-79
2022/05/08 04:07:21;;;;;;;3.95;3.53;;;;;;;;;;7408800;19;20007;-79
2022/05/08 04:09:46;;;;;;;6.07;3.70;;;;;;;;;;7409474;19;20009;-78
2022/05/08 04:12:11;;;;;;;7.43;4.82;;;;;;;;;;7405279;19;20011;-78
2022/05/08 04:14:36;;;;;;;3.45;2.92;;;;;;;;;;7409620;19;20027;-78
2022/05/08 04:17:02;;;;;;;3.47;3.17;;;;;;;;;;7413477;19;20043;-78
2022/05/08 04:19:27;;;;;;;4.88;3.35;;;;;;;;;;7423054;19;20003;-77
2022/05/08 04:24:16;;;;;;;4.85;3.72;;;;;;;;;;7392269;19;20014;-77
2022/05/08 04:24:41;;;;;;;9.20;4.03;;;;;;;;;;7394854;19;20025;-79
2022/05/08 04:27:06;;;;;;;4.35;3.67;;;;;;;;;;7390476;19;20015;-77
2022/05/08 04:29:31;;;;;;;5.15;4.25;;;;;;;;;;7394566;19;20663;-76
2022/05/08 04:31:57;;;;;;;5.20;3.80;;;;;;;;;;7396016;19;20010;-77
2022/05/08 04:34:22;;;;;;;4.13;3.55;;;;;;;;;;7397328;19;20002;-77
2022/05/08 04:36:47;;;;;;;5.47;3.03;;;;;;;;;;7388467;19;20011;-77
2022/05/08 04:39:13;;;;;;;4.72;3.75;;;;;;;;;;7395051;19;20014;-77
2022/05/08 04:41:38;;;;;;;4.88;3.50;;;;;;;;;;7394007;19;20304;-77
2022/05/08 04:44:04;;;;;;;6.25;3.65;;;;;;;;;;7396553;19;20017;-77
2022/05/08 04:46:30;;;;;;;4.65;3.80;;;;;;;;;;7396007;19;20019;-78
2022/05/08 04:48:55;;;;;;;5.13;3.78;;;;;;;;;;7394392;19;20012;-77
2022/05/08 04:51:20;;;;;;;4.78;4.25;;;;;;;;;;7396989;19;19998;-78
2022/05/08 04:53:46;;;;;;;4.72;4.13;;;;;;;;;;7395541;19;20459;-77
2022/05/08 04:56:12;;;;;;;5.60;4.00;;;;;;;;;;7400824;19;20030;-77
2022/05/08 04:58:37;;;;;;;4.22;3.70;;;;;;;;;;7392495;19;20062;-78
2022/05/08 05:01:02;;;;;;;4.47;3.58;;;;;;;;;;7393992;19;20467;-78
2022/05/08 05:03:28;;;;;;;7.65;5.82;;;;;;;;;;7389816;19;20025;-77
2022/05/08 05:05:53;;;;;;;4.70;3.85;;;;;;;;;;7396589;19;20034;-78
2022/05/08 05:08:20;;;;;;;5.70;4.22;;;;;;;;;;7387295;19;20503;-79
2022/05/08 05:10:46;;;;;;;4.88;4.28;;;;;;;;;;7396636;19;20014;-78
2022/05/08 05:13:11;;;;;;;7.28;4.88;;;;;;;;;;7391792;19;20014;-78
2022/05/08 05:15:37;;;;;;;4.57;4.07;;;;;;;;;;7388522;19;20007;-78
2022/05/08 05:18:02;;;;;;;6.28;4.47;;;;;;;;;;7386207;19;20011;-78
2022/05/08 05:20:29;;;;;;;7.22;4.07;;;;;;;;;;7389893;19;20017;-78
2022/05/08 05:22:54;;;;;;;6.60;5.22;;;;;;;;;;7389749;19;20014;-78
2022/05/08 05:25:20;;;;;;;6.53;5.07;;;;;;;;;;7390677;19;20007;-77
2022/05/08 05:27:46;;;;;;;6.40;5.30;;;;;;;;;;7389739;19;20134;-78
2022/05/08 05:30:12;;;;;;;8.45;6.10;;;;;;;;;;7390733;19;20007;-78
2022/05/08 05:32:39;;;;;;;6.40;5.10;;;;;;;;;;7392098;19;20128;-78
2022/05/08 05:35:05;;;;;;;5.20;4.65;;;;;;;;;;7390775;19;20341;-79
2022/05/08 05:37:31;;;;;;;6.15;5.07;;;;;;;;;;7392616;19;20070;-79
2022/05/08 05:39:56;;;;;;;5.35;4.07;;;;;;;;;;7393474;19;20018;-79
2022/05/08 05:42:21;;;;;;;4.50;3.80;;;;;;;;;;7388661;19;20025;-79
2022/05/08 05:44:46;;;;;;;7.13;4.55;;;;;;;;;;7396144;19;20021;-79
2022/05/08 05:49:55;;;;;;;6.72;4.30;;;;;;;;;;7395901;19;20138;-79
2022/05/08 05:52:21;;;;;;;10.40;7.00;;;;;;;;;;7394176;19;20042;-78
2022/05/08 05:54:46;;;;;;;8.88;6.38;;;;;;;;;;7396176;19;20010;-78
2022/05/08 05:57:11;;;;;;;7.43;6.13;;;;;;;;;;7392887;19;20493;-79
2022/05/08 05:59:36;;;;;;;7.68;6.18;;;;;;;;;;7394486;19;20070;-78
2022/05/08 06:02:02;;;;;;;7.70;5.25;;;;;;;;;;7391281;19;20006;-78
2022/05/08 06:04:27;;;;;;;7.60;5.97;;;;;;;;;;7397149;19;20428;-79
2022/05/08 06:06:53;;;;;;;8.25;5.70;;;;;;;;;;7391020;19;20011;-79
2022/05/08 06:09:18;;;;;;;7.40;6.18;;;;;;;;;;7396316;19;20448;-79
2022/05/08 06:11:44;;;;;;;7.38;6.15;;;;;;;;;;7389991;19;20042;-79
2022/05/08 06:14:10;;;;;;;7.88;6.50;;;;;;;;;;7395617;19;20022;-79
2022/05/08 06:16:35;;;;;;;7.68;6.22;;;;;;;;;;7392131;19;20410;-78
2022/05/08 06:19:01;;;;;;;6.65;5.60;;;;;;;;;;7395255;19;20018;-79
2022/05/08 06:21:27;;;;;;;7.70;6.60;;;;;;;;;;7393304;19;20355;-79
2022/05/08 06:23:55;;;;;;;8.05;6.35;;;;;;;;;;7391997;19;22020;-78
2022/05/08 06:26:22;;;;;;;7.60;6.35;;;;;;;;;;7393360;19;20366;-78
2022/05/08 06:28:48;;;;;;;6.93;5.72;;;;;;;;;;7394455;19;20010;-78
2022/05/08 06:31:16;;;;;;;6.95;5.88;;;;;;;;;;7394667;19;20006;-79
2022/05/08 06:33:43;;;;;;;5.88;5.28;;;;;;;;;;7393452;19;20018;-78
2022/05/08 06:36:09;;;;;;;10.82;6.18;;;;;;;;;;7395426;19;20360;-79
2022/05/08 06:38:34;;;;;;;7.88;5.95;;;;;;;;;;7388146;19;20018;-78
2022/05/08 06:40:59;;;;;;;7.15;5.68;;;;;;;;;;7390960;19;20006;-77
2022/05/08 06:43:24;;;;;;;8.25;6.55;;;;;;;;;;7389586;19;20046;-77
2022/05/08 06:45:50;;;;;;;6.55;5.75;;;;;;;;;;7386384;19;20032;-77
2022/05/08 06:48:15;;;;;;;7.53;5.93;;;;;;;;;;7387127;19;20330;-77
2022/05/08 06:50:40;;;;;;;12.82;9.35;;;;;;;;;;7386775;19;20062;-77
2022/05/08 06:53:06;;;;;;;8.27;6.80;;;;;;;;;;7386401;19;20011;-77
2022/05/08 06:55:33;;;;;;;9.70;6.38;;;;;;;;;;7391252;19;20556;-78
2022/05/08 06:57:58;;;;;;;9.55;6.95;;;;;;;;;;7396725;19;20002;-77
2022/05/08 07:03:07;;;;;;;6.38;5.57;;;;;;;;;;7388733;19;20075;-77
2022/05/08 07:05:36;;;;;;;8.90;5.97;;;;;;;;;;7394933;19;20014;-77
2022/05/08 07:08:01;;;;;;;9.10;5.70;;;;;;;;;;7393453;19;20006;-78
2022/05/08 07:10:26;;;;;;;6.15;5.28;;;;;;;;;;7395208;19;20010;-77
2022/05/08 07:12:52;;;;;;;5.25;4.32;;;;;;;;;;7396093;19;20013;-77
2022/05/08 07:15:17;;;;;;;5.28;4.70;;;;;;;;;;7394722;19;20022;-77
2022/05/08 07:17:42;;;;;;;5.93;4.65;;;;;;;;;;7392315;19;20122;-77
2022/05/08 07:20:09;;;;;;;7.22;4.63;;;;;;;;;;7393525;19;20847;-77
2022/05/08 07:22:35;;;;;;;5.03;4.50;;;;;;;;;;7391349;19;20015;-77
2022/05/08 07:25:00;;;;;;;5.32;4.35;;;;;;;;;;7392962;19;20070;-77
2022/05/08 07:27:26;;;;;;;4.72;4.22;;;;;;;;;;7393963;19;20035;-77
2022/05/08 07:29:52;;;;;;;8.00;4.63;;;;;;;;;;7394134;19;20087;-77
2022/05/08 07:32:18;;;;;;;6.55;4.40;;;;;;;;;;7394091;19;20109;-77
2022/05/08 07:37:27;;;;;;;6.00;4.05;;;;;;;;;;7387461;19;20116;-77
2022/05/08 07:39:52;;;;;;;6.05;4.25;;;;;;;;;;7394258;19;20397;-76
2022/05/08 07:42:18;;;;;;;8.25;4.82;;;;;;;;;;7389296;19;20026;-76
2022/05/08 07:44:43;;;;;;;4.70;4.20;;;;;;;;;;7395393;19;20018;-77
2022/05/08 07:47:08;;;;;;;10.10;5.70;;;;;;;;;;7392840;19;20078;-77
2022/05/08 07:49:34;;;;;;;5.07;4.20;;;;;;;;;;7392735;19;20018;-77
2022/05/08 07:51:59;;;;;;;4.20;3.78;;;;;;;;;;7391368;19;20730;-77
2022/05/08 07:54:25;;;;;;;7.00;4.60;;;;;;;;;;7394905;19;20010;-77
2022/05/08 07:56:51;;;;;;;4.82;3.83;;;;;;;;;;7394063;19;20084;-77
2022/05/08 07:59:16;;;;;;;4.07;3.45;;;;;;;;;;7394329;19;20011;-77
2022/05/08 08:01:41;;;;;;;4.20;3.70;;;;;;;;;;7391296;19;20471;-76
2022/05/08 08:04:09;;;;;;;4.97;3.78;;;;;;;;;;7385520;19;20030;-76
2022/05/08 08:06:35;;;;;;;6.32;3.40;;;;;;;;;;7390808;19;20015;-76
2022/05/08 08:09:00;;;;;;;4.93;4.35;;;;;;;;;;7393357;19;20015;-76
2022/05/08 08:11:25;;;;;;;4.90;4.38;;;;;;;;;;7391642;19;20002;-76
2022/05/08 08:13:51;;;;;;;6.70;4.55;;;;;;;;;;7390515;19;20034;-75
2022/05/08 08:16:16;;;;;;;7.53;4.82;;;;;;;;;;7391915;19;20046;-77
2022/05/08 08:18:43;;;;;;;5.13;4.55;;;;;;;;;;7385226;19;20048;-77
2022/05/08 08:21:13;;;;;;;4.30;3.67;;;;;;;;;;7389340;19;20176;-76
2022/05/08 08:23:40;;;;;;;5.53;4.07;;;;;;;;;;7391883;19;20021;-76
2022/05/08 08:26:06;;;;;;;4.05;3.50;;;;;;;;;;7392656;19;20010;-76
2022/05/08 08:28:31;;;;;;;5.90;3.28;;;;;;;;;;7391415;19;20373;-76
2022/05/08 08:30:56;;;;;;;5.32;3.90;;;;;;;;;;7389819;19;20041;-76
2022/05/08 08:33:22;;;;;;;6.88;3.63;;;;;;;;;;7391304;19;20015;-77
2022/05/08 08:35:47;;;;;;;6.20;3.80;;;;;;;;;;7388402;19;20003;-76
2022/05/08 08:38:14;;;;;;;5.78;4.80;;;;;;;;;;7388709;19;20006;-77
2022/05/08 08:40:41;;;;;;;3.88;3.35;;;;;;;;;;7391646;19;20006;-77
2022/05/08 08:43:11;;;;;;;4.93;2.90;;;;;;;;;;7388841;19;20521;-76
2022/05/08 08:48:32;;;;;;;2.80;2.60;;;;;;;;;;7389675;19;20017;-77
2022/05/08 08:50:59;;;;;;;3.22;2.80;;;;;;;;;;7391492;19;20013;-77
2022/05/08 08:53:25;;;;;;;3.72;2.97;;;;;;;;;;7386451;19;20027;-77
2022/05/08 08:55:51;;;;;;;5.75;4.28;;;;;;;;;;7381996;19;20459;-76
2022/05/08 08:58:17;;;;;;;3.42;2.45;;;;;;;;;;7388088;19;20007;-77
2022/05/08 09:00:43;;;;;;;3.65;2.70;;;;;;;;;;7389494;19;20010;-77
2022/05/08 09:03:08;;;;;;;2.70;2.47;;;;;;;;;;7387380;19;20018;-76
2022/05/08 09:05:35;;;;;;;2.83;2.42;;;;;;;;;;7391141;19;20010;-77
2022/05/08 09:08:00;;;;;;;3.00;2.70;;;;;;;;;;7387288;19;20027;-76
2022/05/08 09:10:28;;;;;;;4.03;2.45;;;;;;;;;;7386276;19;20015;-77
2022/05/08 09:12:54;;;;;;;3.67;2.78;;;;;;;;;;7388591;19;20074;-76
2022/05/08 09:15:24;;;;;;;3.08;2.55;;;;;;;;;;7393166;19;20031;-78
2022/05/08 09:18:03;;;;;;;2.50;2.30;;;;;;;;;;7390071;19;20066;-77
2022/05/08 09:20:35;;;;;;;4.45;2.33;;;;;;;;;;7392345;19;20098;-78
2022/05/08 09:23:23;;;;;;;3.00;2.42;;;;;;;;;;7387834;19;20006;-77
2022/05/08 09:25:51;;;;;;;3.78;2.45;;;;;;;;;;7387825;19;20352;-77
2022/05/08 09:28:30;;;;;;;3.13;2.78;;;;;;;;;;7385059;19;20010;-77
2022/05/08 09:31:03;;;;;;;6.57;3.30;;;;;;;;;;7386972;19;20041;-77
2022/05/08 09:33:37;;;;;;;4.20;3.10;;;;;;;;;;7385641;19;20037;-76
2022/05/08 09:36:09;;;;;;;4.47;3.22;;;;;;;;;;7387893;19;20092;-77
2022/05/08 09:38:55;;;;;;;5.65;3.90;;;;;;;;;;7385392;19;20010;-77
2022/05/08 09:41:23;;;;;;;3.88;2.80;;;;;;;;;;7386130;19;20359;-77
2022/05/08 09:43:51;;;;;;;3.80;2.70;;;;;;;;;;7386448;19;20138;-77
2022/05/08 09:46:17;;;;;;;3.67;2.28;;;;;;;;;;7386178;19;20433;-76
2022/05/08 09:48:43;;;;;;;5.88;2.38;;;;;;;;;;7386268;19;20313;-77
2022/05/08 09:51:10;;;;;;;4.28;2.53;;;;;;;;;;7389640;19;20017;-77
2022/05/08 09:53:40;;;;;;;5.00;2.67;;;;;;;;;;7390485;19;20025;-77
2022/05/08 09:56:07;;;;;;;2.83;2.28;;;;;;;;;;7392303;19;20014;-76
2022/05/08 09:58:33;;;;;;;2.50;2.20;;;;;;;;;;7387620;19;20050;-76
2022/05/08 10:00:59;;;;;;;4.07;2.33;;;;;;;;;;7390142;19;20380;-76
2022/05/08 10:03:25;;;;;;;3.50;2.80;;;;;;;;;;7386659;19;20010;-76
2022/05/08 10:05:51;;;;;;;2.97;2.40;;;;;;;;;;7390591;19;20517;-76
2022/05/08 10:08:19;;;;;;;2.80;2.50;;;;;;;;;;7389008;19;20043;-77
2022/05/08 10:14:07;;;;;;;3.22;2.60;;;;;;;;;;7388616;19;20022;-77
2022/05/08 10:17:02;;;;;;;3.45;3.13;;;;;;;;;;7389430;19;20005;-76
2022/05/08 10:19:27;;;;;;;2.97;2.23;;;;;;;;;;7387454;19;20014;-77
2022/05/08 10:22:06;;;;;;;2.60;2.28;;;;;;;;;;7384682;19;20023;-77
2022/05/08 10:24:32;;;;;;;3.55;2.47;;;;;;;;;;7388634;19;20430;-77
2022/05/08 10:27:18;;;;;;;4.85;3.40;;;;;;;;;;7389068;19;20112;-77
2022/05/08 10:29:50;;;;;;;4.63;3.10;;;;;;;;;;7389476;19;20014;-77
2022/05/08 10:32:33;;;;;;;4.05;3.22;;;;;;;;;;7388319;19;20025;-76
2022/05/08 10:35:20;;;;;;;3.50;2.65;;;;;;;;;;7389943;19;20013;-77
2022/05/08 10:38:16;;;;;;;3.25;2.60;;;;;;;;;;7386694;19;20023;-77
2022/05/08 10:40:41;;;;;;;3.95;2.42;;;;;;;;;;7387778;19;20015;-76
2022/05/08 10:43:10;;;;;;;3.17;2.42;;;;;;;;;;7385194;19;20506;-77
2022/05/08 10:45:40;;;;;;;5.22;2.15;;;;;;;;;;7389108;19;20629;-77
2022/05/08 10:48:19;;;;;;;2.95;2.65;;;;;;;;;;7387042;19;20034;-77
2022/05/08 10:50:54;;;;;;;2.92;2.30;;;;;;;;;;7388189;19;20007;-77
2022/05/08 10:53:21;;;;;;;3.30;3.00;;;;;;;;;;7388462;19;20006;-77
2022/05/08 10:55:46;;;;;;;3.55;2.88;;;;;;;;;;7388108;19;20003;-77
2022/05/08 10:58:11;;;;;;;2.78;2.47;;;;;;;;;;7385766;19;20007;-77
2022/05/08 11:00:37;;;;;;;3.40;2.35;;;;;;;;;;7388187;19;20002;-77
2022/05/08 11:03:02;;;;;;;3.17;2.85;;;;;;;;;;7384481;19;20070;-77
2022/05/08 11:05:38;;;;;;;6.40;2.70;;;;;;;;;;7387982;19;20062;-77
2022/05/08 11:08:10;;;;;;;2.92;2.30;;;;;;;;;;7386521;19;20003;-77
2022/05/08 11:10:37;;;;;;;5.35;2.97;;;;;;;;;;7388938;19;20007;-77
2022/05/08 11:13:11;;;;;;;2.72;2.50;;;;;;;;;;7386406;19;20018;-77
2022/05/08 11:15:45;;;;;;;4.67;2.33;;;;;;;;;;7388319;19;20022;-77
2022/05/08 11:18:15;;;;;;;3.92;3.10;;;;;;;;;;7385848;19;19999;-77
2022/05/08 11:20:53;;;;;;;3.70;2.58;;;;;;;;;;7385766;19;20058;-77
2022/05/08 11:23:22;;;;;;;7.78;2.90;;;;;;;;;;7386512;19;20017;-77
2022/05/08 11:25:50;;;;;;;3.63;2.83;;;;;;;;;;7389803;19;20068;-76
2022/05/08 11:28:17;;;;;;;2.92;2.67;;;;;;;;;;7386198;19;20816;-77
2022/05/08 11:30:46;;;;;;;3.20;2.65;;;;;;;;;;7388146;19;20002;-77
2022/05/08 11:36:06;;;;;;;4.13;2.55;;;;;;;;;;7386155;19;20024;-76
2022/05/08 11:38:41;;;;;;;2.35;2.15;;;;;;;;;;7383163;19;20316;-77
2022/05/08 11:41:15;;;;;;;3.00;2.70;;;;;;;;;;7386837;19;20122;-77
2022/05/08 11:43:45;;;;;;;3.47;2.30;;;;;;;;;;7394615;19;20007;-77
2022/05/08 11:46:15;;;;;;;4.18;2.63;;;;;;;;;;7395939;19;20058;-77
2022/05/08 11:48:42;;;;;;;3.58;2.72;;;;;;;;;;7391317;19;20018;-76
2022/05/08 11:51:09;;;;;;;3.17;2.65;;;;;;;;;;7394059;19;20010;-76
2022/05/08 11:53:41;;;;;;;4.18;3.00;;;;;;;;;;7394570;19;20024;-77
2022/05/08 11:56:39;;;;;;;2.63;2.30;;;;;;;;;;7392208;19;20014;-76
2022/05/08 11:59:16;;;;;;;3.50;2.67;;;;;;;;;;7390711;19;20014;-77
2022/05/08 12:01:48;;;;;;;2.90;2.50;;;;;;;;;;7392360;19;20012;-76
2022/05/08 12:04:27;;;;;;;4.03;3.08;;;;;;;;;;7392793;19;20026;-77
2022/05/08 12:06:56;;;;;;;3.58;2.78;;;;;;;;;;7394066;19;20423;-77
2022/05/08 12:09:21;;;;;;;3.03;2.72;;;;;;;;;;7392156;19;20029;-77
2022/05/08 12:11:47;;;;;;;3.05;2.45;;;;;;;;;;7392841;19;20082;-77
2022/05/08 12:14:12;;;;;;;2.83;2.60;;;;;;;;;;7393765;19;20013;-77
2022/05/08 12:16:38;;;;;;;4.20;2.80;;;;;;;;;;7395337;19;20006;-77
2022/05/08 12:19:18;;;;;;;2.90;2.17;;;;;;;;;;7393089;19;20009;-77
2022/05/08 12:21:45;;;;;;;4.03;2.60;;;;;;;;;;7392540;19;20070;-77
2022/05/08 12:24:17;;;;;;;4.80;2.35;;;;;;;;;;7394309;19;20066;-77
2022/05/08 12:26:43;;;;;;;4.50;2.40;;;;;;;;;;7392048;19;20007;-77
2022/05/08 12:29:34;;;;;;;3.65;2.53;;;;;;;;;;7393610;19;20006;-77
2022/05/08 12:32:00;;;;;;;3.40;2.67;;;;;;;;;;7391112;19;20007;-77
2022/05/08 12:34:25;;;;;;;2.85;2.60;;;;;;;;;;7392340;19;20020;-77
2022/05/08 12:36:52;;;;;;;2.63;2.42;;;;;;;;;;7392891;19;20010;-77
2022/05/08 12:39:19;;;;;;;5.18;3.05;;;;;;;;;;7393204;19;20013;-77
2022/05/08 12:41:45;;;;;;;3.03;2.75;;;;;;;;;;7391039;19;20440;-77
2022/05/08 12:44:11;;;;;;;3.05;2.50;;;;;;;;;;7392728;19;20021;-77
2022/05/08 12:46:36;;;;;;;2.72;2.53;;;;;;;;;;7393834;19;20527;-77
2022/05/08 12:49:03;;;;;;;2.15;1.95;;;;;;;;;;7390688;19;20062;-76
2022/05/08 12:51:30;;;;;;;2.75;2.45;;;;;;;;;;7391148;19;20006;-77
2022/05/08 12:53:55;;;;;;;4.38;2.38;;;;;;;;;;7392626;19;20010;-76
2022/05/08 12:56:21;;;;;;;2.60;2.40;;;;;;;;;;7390232;19;20012;-77
2022/05/08 13:01:30;;;;;;;4.53;3.70;;;;;;;;;;7391439;19;20010;-77
2022/05/08 13:03:55;;;;;;;6.32;4.20;;;;;;;;;;7392625;19;20002;-76
2022/05/08 13:06:21;;;;;;;3.25;2.90;;;;;;;;;;7392014;19;20128;-76
2022/05/08 13:08:46;;;;;;;3.70;2.88;;;;;;;;;;7388037;19;20070;-77
2022/05/08 13:11:11;;;;;;;4.15;2.75;;;;;;;;;;7390488;19;20027;-78
2022/05/08 13:13:37;;;;;;;3.05;2.38;;;;;;;;;;7397270;19;20433;-77
2022/05/08 13:16:04;;;;;;;3.25;2.40;;;;;;;;;;7387885;19;20507;-76
2022/05/08 13:18:30;;;;;;;5.10;3.00;;;;;;;;;;7388809;19;20162;-77
2022/05/08 13:20:55;;;;;;;3.92;2.33;;;;;;;;;;7383925;19;20110;-76
2022/05/08 13:23:20;;;;;;;2.60;2.33;;;;;;;;;;7385499;19;20451;-77
2022/05/08 13:25:46;;;;;;;4.40;2.70;;;;;;;;;;7388107;19;20026;-77
2022/05/08 13:28:11;;;;;;;4.22;2.50;;;;;;;;;;7387280;19;20094;-76
2022/05/08 13:30:37;;;;;;;3.58;2.63;;;;;;;;;;7387260;19;20029;-76
2022/05/08 13:33:02;;;;;;;4.47;2.60;;;;;;;;;;7383578;19;20029;-76
2022/05/08 13:35:27;;;;;;;3.47;2.45;;;;;;;;;;7386917;19;20007;-76
2022/05/08 13:37:53;;;;;;;2.47;2.28;;;;;;;;;;7386143;19;20026;-77
2022/05/08 13:40:19;;;;;;;2.78;2.38;;;;;;;;;;7388126;19;20010;-76
2022/05/08 13:42:44;;;;;;;2.33;2.00;;;;;;;;;;7385581;19;20717;-76
2022/05/08 13:45:10;;;;;;;2.50;2.30;;;;;;;;;;7387678;19;20003;-76
2022/05/08 13:47:35;;;;;;;5.22;2.10;;;;;;;;;;7382825;19;20434;-76
2022/05/08 13:50:03;;;;;;;2.45;1.95;;;;;;;;;;7386181;19;20010;-76
2022/05/08 13:52:30;;;;;;;2.92;1.90;;;;;;;;;;7386451;19;20432;-76
2022/05/08 13:54:55;;;;;;;2.30;2.10;;;;;;;;;;7388834;19;20122;-76
2022/05/08 13:57:20;;;;;;;2.35;1.90;;;;;;;;;;7386195;19;20145;-76
2022/05/08 13:59:46;;;;;;;4.93;2.00;;;;;;;;;;7387693;19;20471;-76
2022/05/08 14:02:13;;;;;;;2.50;1.90;;;;;;;;;;7383495;19;20003;-76
2022/05/08 14:04:39;;;;;;;3.45;2.03;;;;;;;;;;7385967;19;20052;-76
2022/05/08 14:07:04;;;;;;;3.15;1.80;;;;;;;;;;7384909;19;19999;-76
2022/05/08 14:09:29;;;;;;;2.72;1.55;;;;;;;;;;7389052;19;20018;-77
2022/05/08 14:11:55;;;;;;;1.83;1.73;;;;;;;;;;7385166;19;20305;-77
2022/05/08 14:14:25;;;;;;;2.00;1.80;;;;;;;;;;7387457;19;20003;-76
2022/05/08 14:16:50;;;;;;;1.70;1.60;;;;;;;;;;7387968;19;20006;-76
2022/05/08 14:19:16;;;;;;;1.98;1.83;;;;;;;;;;7385806;19;20458;-76
2022/05/08 14:21:41;;;;;;;2.92;2.03;;;;;;;;;;7384112;19;20006;-77
2022/05/08 14:24:09;;;;;;;2.22;1.83;;;;;;;;;;7386949;19;20460;-76
2022/05/08 14:26:35;;;;;;;2.30;1.90;;;;;;;;;;7386597;19;20065;-77
2022/05/08 14:29:00;;;;;;;2.92;2.10;;;;;;;;;;7386851;19;20077;-76
2022/05/08 14:36:53;;;;;;;2.15;1.95;;;;;;;;;;7386111;19;20443;-76
2022/05/08 14:39:18;;;;;;;3.15;2.10;;;;;;;;;;7388266;19;20078;-76
2022/05/08 14:41:45;;;;;;;2.38;2.10;;;;;;;;;;7386047;19;20318;-77
2022/05/08 14:44:11;;;;;;;2.20;2.00;;;;;;;;;;7385021;19;20006;-76
2022/05/08 14:46:36;;;;;;;2.47;2.22;;;;;;;;;;7378619;19;20060;-77
2022/05/08 14:49:01;;;;;;;2.30;2.10;;;;;;;;;;7379857;19;20007;-76
2022/05/08 14:51:28;;;;;;;2.63;2.10;;;;;;;;;;7374998;19;20704;-77
2022/05/08 14:53:53;;;;;;;2.60;2.20;;;;;;;;;;7379768;19;20007;-76
2022/05/08 14:56:18;;;;;;;2.10;1.90;;;;;;;;;;7380929;19;21109;-76
2022/05/08 14:58:46;;;;;;;2.88;2.42;;;;;;;;;;7378703;19;20026;-76
2022/05/08 15:01:12;;;;;;;2.92;2.30;;;;;;;;;;7381382;19;20128;-77
2022/05/08 15:03:40;;;;;;;2.33;1.98;;;;;;;;;;7378849;19;20038;-77
2022/05/08 15:06:06;;;;;;;4.22;2.00;;;;;;;;;;7381456;19;20082;-76
2022/05/08 15:08:31;;;;;;;1.98;1.77;;;;;;;;;;7379152;19;20375;-76
2022/05/08 15:10:57;;;;;;;2.25;1.67;;;;;;;;;;7379918;19;20010;-77
2022/05/08 15:13:23;;;;;;;1.80;1.70;;;;;;;;;;7383316;19;20002;-76
2022/05/08 15:15:48;;;;;;;1.52;1.42;;;;;;;;;;7385287;19;20017;-77